createdAt,value
2024-05-09T00:00:55.866Z,24.49
2024-05-09T00:05:59.124Z,24.18
2024-05-09T00:11:10.100Z,23.83
2024-05-09T00:16:13.300Z,23.76
2024-05-09T00:21:16.498Z,23.61
2024-05-09T00:26:22.712Z,23.75
2024-05-09T00:31:26.056Z,23.17
2024-05-09T00:36:29.160Z,23.02
2024-05-09T00:41:35.365Z,22.72
2024-05-09T00:46:38.968Z,22.40
2024-05-09T00:51:43.347Z,22.16
2024-05-09T00:56:50.200Z,21.80
2024-05-09T01:01:54.016Z,21.48
2024-05-09T01:06:57.480Z,21.32
2024-05-09T01:12:03.561Z,20.88
2024-05-09T01:17:07.038Z,20.58
2024-05-09T01:22:10.517Z,20.22
2024-05-09T01:27:16.783Z,20.03
2024-05-09T01:32:19.991Z,19.74
2024-05-09T01:37:23.153Z,19.48
2024-05-09T01:42:29.064Z,19.26
2024-05-09T01:47:33.173Z,18.98
2024-05-09T01:52:36.619Z,18.52
2024-05-09T01:57:42.556Z,18.49
2024-05-09T02:02:46.047Z,18.37
2024-05-09T02:07:49.407Z,18.17
2024-05-09T02:12:55.266Z,18.03
2024-05-09T02:17:58.519Z,17.76
2024-05-09T02:23:01.943Z,17.80
2024-05-09T02:28:08.706Z,17.77
2024-05-09T02:33:13.727Z,17.58
2024-05-09T02:38:17.740Z,17.31
2024-05-09T02:43:23.945Z,17.27
2024-05-09T02:48:27.249Z,17.02
2024-05-09T02:53:30.658Z,17.15
2024-05-09T02:58:36.677Z,16.97
2024-05-09T03:03:40.176Z,16.54
2024-05-09T03:08:45.933Z,16.53
2024-05-09T03:13:52.842Z,16.35
2024-05-09T03:18:56.050Z,16.18
2024-05-09T03:23:59.254Z,16.15
2024-05-09T03:29:05.489Z,15.98
2024-05-09T03:34:08.669Z,16.04
2024-05-09T03:39:12.113Z,16.17
2024-05-09T03:44:18.628Z,16.00
2024-05-09T03:49:22.395Z,15.97
2024-05-09T03:54:25.921Z,16.00
2024-05-09T03:59:31.909Z,16.03
2024-05-09T04:04:35.259Z,16.31
2024-05-09T04:09:38.460Z,16.19
2024-05-09T04:14:44.339Z,16.13
2024-05-09T04:19:47.569Z,15.94
2024-05-09T04:24:50.673Z,15.98
2024-05-09T04:29:56.947Z,15.83
2024-05-09T04:35:00.385Z,15.65
2024-05-09T04:40:05.415Z,15.47
2024-05-09T04:45:12.842Z,15.38
2024-05-09T04:50:24.653Z,15.34
2024-05-09T04:55:32.840Z,15.17
2024-05-09T05:06:14.679Z,14.97
2024-05-09T05:11:17.839Z,14.84
2024-05-09T05:16:21.060Z,14.72
2024-05-09T05:21:27.162Z,14.46
2024-05-09T05:26:30.374Z,14.42
2024-05-09T05:31:33.523Z,14.35
2024-05-09T05:36:39.496Z,14.18
2024-05-09T05:41:42.597Z,14.15
2024-05-09T05:46:45.759Z,13.90
2024-05-09T05:51:51.650Z,14.03
2024-05-09T05:56:54.841Z,13.97
2024-05-09T06:01:58.042Z,13.85
2024-05-09T06:07:04.789Z,13.72
2024-05-09T06:12:08.224Z,13.72
2024-05-09T06:17:11.625Z,13.67
2024-05-09T06:22:17.646Z,13.57
2024-05-09T06:27:20.966Z,13.35
2024-05-09T06:32:24.409Z,13.31
2024-05-09T06:37:30.410Z,13.18
2024-05-09T06:42:33.594Z,13.01
2024-05-09T06:47:36.875Z,12.84
2024-05-09T06:52:43.180Z,12.69
2024-05-09T06:57:46.281Z,12.64
2024-05-09T07:02:49.656Z,12.39
2024-05-09T07:07:56.149Z,12.35
2024-05-09T07:12:59.462Z,12.19
2024-05-09T07:18:08.037Z,12.13
2024-05-09T07:23:14.159Z,11.95
2024-05-09T07:28:18.559Z,11.96
2024-05-09T07:33:23.962Z,11.83
2024-05-09T07:38:30.643Z,11.71
2024-05-09T07:43:33.838Z,11.59
2024-05-09T07:50:34.460Z,11.54
2024-05-09T07:54:03.462Z,11.45
2024-05-09T07:59:07.134Z,11.40
2024-05-09T08:04:10.335Z,11.33
2024-05-09T08:09:20.598Z,11.26
2024-05-09T08:14:24.535Z,11.14
2024-05-09T08:19:27.687Z,11.10
2024-05-09T08:24:34.100Z,10.96
2024-05-09T08:29:37.234Z,10.86
2024-05-09T08:34:40.608Z,10.73
2024-05-09T08:39:46.598Z,10.66
2024-05-09T08:44:50.799Z,10.60
2024-05-09T08:49:55.454Z,10.36
2024-05-09T08:55:01.918Z,10.19
2024-05-09T09:00:10.112Z,9.99
2024-05-09T09:05:18.306Z,9.81
2024-05-09T09:10:31.064Z,9.69
2024-05-09T09:15:35.503Z,9.82
2024-05-09T09:20:38.767Z,9.77
2024-05-09T09:25:45.077Z,9.77
2024-05-09T09:30:48.308Z,9.75
2024-05-09T09:35:51.392Z,9.66
2024-05-09T09:40:57.320Z,9.52
2024-05-09T09:46:02.551Z,9.61
2024-05-09T09:51:07.337Z,9.63
2024-05-09T09:56:17.794Z,9.66
2024-05-09T10:01:21.314Z,9.43
2024-05-09T10:06:25.066Z,9.37
2024-05-09T10:11:39.813Z,9.27
2024-05-09T10:16:48.705Z,9.20
2024-05-09T10:21:52.790Z,9.25
2024-05-09T10:27:04.338Z,9.20
2024-05-09T10:32:09.874Z,9.15
2024-05-09T10:37:13.464Z,9.16
2024-05-09T10:42:20.311Z,8.97
2024-05-09T10:47:23.723Z,8.78
2024-05-09T10:52:26.879Z,8.72
2024-05-09T10:57:39.182Z,8.65
2024-05-09T11:02:42.760Z,8.81
2024-05-09T11:07:46.257Z,8.73
2024-05-09T11:12:52.231Z,8.73
2024-05-09T11:17:55.629Z,8.81
2024-05-09T11:22:59.077Z,8.88
2024-05-09T11:28:06.603Z,8.85
2024-05-09T11:33:12.306Z,9.08
2024-05-09T11:38:15.446Z,9.00
2024-05-09T11:43:21.531Z,9.06
2024-05-09T11:48:25.023Z,9.15
2024-05-09T11:53:28.358Z,9.28
2024-05-09T11:58:34.440Z,9.36
2024-05-09T12:03:37.782Z,9.55
2024-05-09T12:08:41.532Z,9.72
2024-05-09T12:13:47.471Z,9.85
2024-05-09T12:18:50.611Z,10.35
2024-05-09T12:23:53.747Z,10.32
2024-05-09T12:28:59.932Z,10.81
2024-05-09T12:34:03.435Z,11.15
2024-05-09T12:39:06.637Z,11.18
2024-05-09T12:44:12.522Z,11.31
2024-05-09T12:49:18.919Z,11.69
2024-05-09T12:54:22.924Z,12.11
2024-05-09T12:59:28.948Z,12.04
2024-05-09T13:04:32.338Z,12.48
2024-05-09T13:09:35.658Z,13.23
2024-05-09T13:14:41.569Z,12.82
2024-05-09T13:19:44.692Z,13.67
2024-05-09T13:24:47.976Z,13.28
2024-05-09T13:29:54.363Z,13.54
2024-05-09T13:34:57.541Z,13.97
2024-05-09T13:40:00.779Z,14.01
2024-05-09T13:45:09.676Z,14.56
2024-05-09T13:50:20.200Z,15.03
2024-05-09T13:55:30.208Z,15.35
2024-05-09T14:00:44.473Z,15.60
2024-05-09T14:05:52.235Z,16.26
2024-05-09T14:10:56.779Z,15.93
2024-05-09T14:16:02.886Z,17.27
2024-05-09T14:21:06.264Z,17.19
2024-05-09T14:26:09.375Z,16.66
2024-05-09T14:31:15.561Z,17.81
2024-05-09T14:36:18.760Z,17.47
2024-05-09T14:41:21.878Z,17.91
2024-05-09T14:46:27.956Z,18.49
2024-05-09T14:51:31.192Z,18.12
2024-05-09T14:56:34.272Z,19.17
2024-05-09T15:01:40.307Z,18.12
2024-05-09T15:06:43.633Z,17.16
2024-05-09T15:11:46.954Z,17.44
2024-05-09T15:16:52.962Z,18.26
2024-05-09T15:21:56.147Z,18.21
2024-05-09T15:26:59.355Z,18.61
2024-05-09T15:32:06.357Z,19.54
2024-05-09T15:37:09.037Z,19.08
2024-05-09T15:42:12.374Z,19.35
2024-05-09T15:47:18.634Z,20.31
2024-05-09T15:52:21.746Z,20.53
2024-05-09T15:57:24.922Z,20.54
2024-05-09T16:02:30.992Z,21.03
2024-05-09T16:07:34.234Z,20.57
2024-05-09T16:12:37.516Z,21.19
2024-05-09T16:17:43.431Z,22.44
2024-05-09T16:22:46.657Z,21.87
2024-05-09T16:27:51.339Z,20.59
2024-05-09T16:32:57.833Z,21.84
2024-05-09T16:38:01.880Z,20.74
2024-05-09T16:43:05.764Z,19.77
2024-05-09T16:48:12.430Z,21.79
2024-05-09T16:53:15.714Z,22.18
2024-05-09T16:58:19.398Z,23.74
2024-05-09T17:03:25.646Z,22.92
2024-05-09T17:08:28.842Z,24.28
2024-05-09T17:13:31.968Z,23.32
2024-05-09T17:18:38.159Z,23.50
2024-05-09T17:23:41.271Z,23.16
2024-05-09T17:28:44.422Z,22.69
2024-05-09T17:33:50.893Z,22.18
2024-05-09T17:38:54.216Z,21.54
2024-05-09T17:43:57.424Z,22.65
2024-05-09T17:49:03.721Z,22.31
2024-05-09T17:54:06.950Z,22.85
2024-05-09T17:59:11.637Z,22.06
2024-05-09T18:04:18.805Z,21.85
2024-05-09T18:09:22.159Z,21.92
2024-05-09T18:14:25.318Z,21.84
2024-05-09T18:19:31.427Z,22.78
2024-05-09T18:24:34.104Z,23.54
2024-05-09T18:29:37.390Z,24.68
2024-05-09T18:34:43.646Z,24.61
2024-05-09T18:39:46.407Z,22.58
2024-05-09T18:44:49.586Z,23.40
2024-05-09T18:49:55.501Z,21.74
2024-05-09T18:54:58.692Z,23.32
2024-05-09T19:00:02.830Z,24.09
2024-05-09T19:05:10.265Z,21.85
2024-05-09T19:10:22.206Z,23.00
2024-05-09T19:15:28.962Z,21.94
2024-05-09T19:20:36.378Z,21.53
2024-05-09T19:25:40.768Z,22.46
2024-05-09T19:30:44.068Z,22.37
2024-05-09T19:35:50.159Z,21.96
2024-05-09T19:40:53.413Z,21.28
2024-05-09T19:45:56.737Z,22.55
2024-05-09T19:51:03.200Z,22.46
2024-05-09T19:56:06.777Z,21.98
2024-05-09T20:01:10.144Z,22.73
2024-05-09T20:06:16.292Z,23.39
2024-05-09T20:11:19.505Z,22.89
2024-05-09T20:16:22.977Z,23.85
2024-05-09T20:21:28.934Z,23.37
2024-05-09T20:26:31.974Z,25.59
2024-05-09T20:31:35.073Z,24.73
2024-05-09T20:36:41.379Z,23.66
2024-05-09T20:41:44.513Z,23.95
2024-05-09T20:46:47.649Z,23.20
2024-05-09T20:51:53.661Z,23.48
2024-05-09T20:56:56.791Z,22.97
2024-05-09T21:02:00.007Z,23.66
2024-05-09T21:07:06.088Z,23.15
2024-05-09T21:12:09.310Z,23.34
2024-05-09T21:17:13.547Z,23.07
2024-05-09T21:22:19.734Z,23.26
2024-05-09T21:27:22.645Z,22.38
2024-05-09T21:32:25.885Z,23.43
2024-05-09T21:37:32.492Z,23.57
2024-05-09T21:42:35.629Z,22.15
2024-05-09T21:47:38.952Z,22.57
2024-05-09T21:52:44.977Z,25.33
2024-05-09T21:57:48.368Z,24.25
2024-05-09T22:02:51.732Z,24.37
2024-05-09T22:08:07.424Z,24.43
2024-05-09T22:13:10.788Z,23.96
2024-05-09T22:18:14.149Z,24.21
2024-05-09T22:23:20.149Z,23.15
2024-05-09T22:28:23.285Z,23.16
2024-05-09T22:33:26.727Z,24.43
2024-05-09T22:38:33.400Z,25.14
2024-05-09T22:43:36.581Z,24.30
2024-05-09T22:48:39.841Z,23.37
2024-05-09T22:53:45.965Z,23.83
2024-05-09T22:58:50.008Z,23.99
2024-05-09T23:03:53.372Z,24.18
2024-05-09T23:08:59.402Z,23.30
2024-05-09T23:14:02.530Z,23.29
2024-05-09T23:19:05.680Z,23.35
2024-05-09T23:24:11.640Z,22.81
2024-05-09T23:29:14.757Z,22.56
2024-05-09T23:34:18.093Z,22.82
2024-05-09T23:39:24.860Z,22.66
2024-05-09T23:44:27.991Z,22.07
2024-05-09T23:49:31.224Z,22.11
2024-05-09T23:54:37.302Z,21.95
2024-05-09T23:59:40.427Z,22.10
